Time;durP1;ratioP1;P1;durP2;ratioP2;P2;SDS_P1;SDS_P2;PMS_P1;PMS_P2;Temp;Humidity;BMP_temperature;BMP_pressure;BME280_temperature;BME280_humidity;BME280_pressure;Samples;Min_cycle;Max_cycle;Signal;HPM_P1;HPM_P2
2023/11/17 00:01:41;;;;;;;;;;;;;;;5.13;92.90;99551.89;110407;1274;23191;-76
2023/11/17 00:04:14;;;;;;;;;;;;;;;5.10;92.95;99549.81;110467;1274;22377;-75
2023/11/17 00:06:45;;;;;;;;;;;;;;;5.06;93.01;99551.48;110500;1274;23146;-76
2023/11/17 00:09:37;;;;;;;;;;;;;;;5.03;93.19;99554.45;106377;1274;5405886;-76
2023/11/17 00:12:08;;;;;;;;;;;;;;;5.03;93.42;99553.26;110483;1275;22462;-76
2023/11/17 00:14:39;;;;;;;;;;;;;;;5.06;93.48;99549.35;110479;1274;23203;-76
2023/11/17 00:17:11;;;;;;;;;;;;;;;5.08;93.45;99550.13;110483;1274;22714;-76
2023/11/17 00:19:45;;;;;;;;;;;;;;;5.09;93.62;99550.00;110484;1274;22374;-77
2023/11/17 00:22:16;;;;;;;;;;;;;;;5.12;93.79;99547.98;110475;1265;22390;-78
2023/11/17 00:24:47;;;;;;;;;;;;;;;5.15;93.82;99545.31;108946;1274;22543;-77
2023/11/17 00:27:18;;;;;;;;;;;;;;;5.18;93.82;99544.58;107813;1271;25217;-77
2023/11/17 00:29:48;;;;;;;;;;;;;;;5.19;93.75;99545.22;107728;1275;22591;-77
2023/11/17 00:32:18;;;;;;;;;;;;;;;5.21;93.86;99545.48;107700;1275;22505;-77
2023/11/17 00:34:48;;;;;;;;;;;;;;;5.24;93.85;99542.58;107798;1275;22621;-77
2023/11/17 00:37:39;;;;;;;;;;;;;;;5.27;93.90;99540.16;107765;1274;22501;-76
2023/11/17 00:40:10;;;;;;;;;;;;;;;5.29;93.92;99544.95;110427;1274;22357;-75
2023/11/17 00:42:40;;;;;;;;;;;;;;;5.30;93.89;99547.80;110457;1275;22468;-76
2023/11/17 00:45:12;;;;;;;;;;;;;;;5.29;93.98;99545.27;110469;1275;22379;-77
2023/11/17 00:47:42;;;;;;;;;;;;;;;5.30;93.98;99544.30;110510;1274;23061;-76
2023/11/17 00:50:15;;;;;;;;;;;;;;;5.29;93.92;99546.40;110501;1275;22392;-75
2023/11/17 00:52:46;;;;;;;;;;;;;;;5.28;94.12;99547.08;110416;1275;22497;-77
2023/11/17 00:55:17;;;;;;;;;;;;;;;5.26;94.11;99548.40;110472;1274;22410;-76
2023/11/17 00:57:48;;;;;;;;;;;;;;;5.26;94.26;99547.45;110461;1275;22385;-76
2023/11/17 01:00:27;;;;;;;;;;;;;;;5.27;94.34;99548.05;110489;1275;22368;-76
2023/11/17 01:02:57;;;;;;;;;;;;;;;5.28;94.23;99548.00;110462;1268;22398;-76
2023/11/17 01:05:30;;;;;;;;;;;;;;;5.29;94.21;99546.41;110467;1275;22499;-76
2023/11/17 01:08:01;;;;;;;;;;;;;;;5.30;94.28;99551.88;110482;1275;22436;-76
2023/11/17 01:10:34;;;;;;;;;;;;;;;5.29;94.40;99551.38;110483;1275;22353;-76
2023/11/17 01:13:04;;;;;;;;;;;;;;;5.29;94.30;99552.49;110483;1275;22424;-76
2023/11/17 01:15:36;;;;;;;;;;;;;;;5.27;94.31;99548.15;110454;1275;22678;-76
2023/11/17 01:18:07;;;;;;;;;;;;;;;5.23;94.20;99549.71;110458;1274;22419;-76
2023/11/17 01:20:40;;;;;;;;;;;;;;;5.22;94.40;99553.24;110508;1274;22332;-76
2023/11/17 01:23:13;;;;;;;;;;;;;;;5.21;94.52;99554.17;110444;1273;22873;-75
2023/11/17 01:25:44;;;;;;;;;;;;;;;5.22;94.66;99555.52;110441;1274;22383;-76
2023/11/17 01:28:17;;;;;;;;;;;;;;;5.25;94.70;99560.54;110424;1275;22489;-76
2023/11/17 01:30:47;;;;;;;;;;;;;;;5.25;94.62;99558.34;110469;1274;22390;-76
2023/11/17 01:33:18;;;;;;;;;;;;;;;5.27;94.72;99559.08;110479;1275;22569;-76
2023/11/17 01:35:50;;;;;;;;;;;;;;;5.26;94.52;99556.39;110481;1275;22521;-76
2023/11/17 01:38:20;;;;;;;;;;;;;;;5.27;94.73;99562.39;110486;1274;23047;-76
2023/11/17 01:40:50;;;;;;;;;;;;;;;5.26;94.69;99558.70;110457;1274;23059;-75
2023/11/17 01:43:27;;;;;;;;;;;;;;;5.28;94.77;99558.30;110450;1275;22492;-76
2023/11/17 01:45:58;;;;;;;;;;;;;;;5.28;94.81;99556.30;110493;1274;22953;-75
2023/11/17 01:48:28;;;;;;;;;;;;;;;5.30;94.87;99552.36;110486;1275;22358;-76
2023/11/17 01:51:00;;;;;;;;;;;;;;;5.33;94.90;99555.32;110457;1274;22887;-75
2023/11/17 01:53:30;;;;;;;;;;;;;;;5.35;94.92;99546.99;110450;1271;22420;-75
2023/11/17 01:56:00;;;;;;;;;;;;;;;5.33;94.82;99548.41;110478;1275;22405;-76
2023/11/17 01:58:31;;;;;;;;;;;;;;;5.34;94.92;99550.08;110512;1274;22451;-76
2023/11/17 02:01:03;;;;;;;;;;;;;;;5.34;94.84;99546.11;110499;1274;23145;-76
2023/11/17 02:03:33;;;;;;;;;;;;;;;5.34;94.88;99545.70;110462;1275;22405;-76
2023/11/17 02:06:09;;;;;;;;;;;;;;;5.34;94.94;99549.48;109973;1275;22552;-75
2023/11/17 02:08:46;;;;;;;;;;;;;;;5.35;94.87;99548.90;107709;1275;22506;-75
2023/11/17 02:11:21;;;;;;;;;;;;;;;5.32;94.90;99551.39;107786;1274;22629;-75
2023/11/17 02:13:55;;;;;;;;;;;;;;;5.28;95.01;99547.14;107679;1275;22526;-76
2023/11/17 02:16:26;;;;;;;;;;;;;;;5.23;95.06;99549.02;108252;1275;24249;-76
2023/11/17 02:18:56;;;;;;;;;;;;;;;5.21;95.23;99551.63;107724;1274;22811;-75
2023/11/17 02:21:31;;;;;;;;;;;;;;;5.22;95.42;99549.54;110430;1274;23055;-76
2023/11/17 02:24:06;;;;;;;;;;;;;;;5.23;95.51;99552.95;110454;1275;23214;-76
2023/11/17 02:26:42;;;;;;;;;;;;;;;5.24;95.49;99550.73;108302;1274;22524;-76
2023/11/17 02:29:14;;;;;;;;;;;;;;;5.21;95.45;99555.25;107755;1267;25454;-76
2023/11/17 02:31:44;;;;;;;;;;;;;;;5.18;95.53;99563.23;107722;1272;22593;-76
2023/11/17 02:34:16;;;;;;;;;;;;;;;5.15;95.69;99563.67;107592;1271;22542;-76
2023/11/17 02:37:06;;;;;;;;;;;;;;;5.11;95.85;99565.71;107562;1267;22554;-75
2023/11/17 02:39:38;;;;;;;;;;;;;;;5.06;95.95;99568.47;107600;1259;24218;-75
2023/11/17 02:42:11;;;;;;;;;;;;;;;5.00;96.08;99565.79;107688;1275;22575;-76
2023/11/17 02:44:41;;;;;;;;;;;;;;;4.96;96.27;99564.66;107616;1274;22775;-76
2023/11/17 02:47:19;;;;;;;;;;;;;;;4.95;96.43;99568.44;107705;1274;25329;-76
2023/11/17 02:49:53;;;;;;;;;;;;;;;4.93;96.67;99569.14;110443;1275;22474;-76
2023/11/17 02:52:26;;;;;;;;;;;;;;;4.93;96.81;99574.67;110397;1275;22439;-76
2023/11/17 02:54:59;;;;;;;;;;;;;;;4.93;96.94;99577.35;110438;1275;22428;-76
2023/11/17 02:57:29;;;;;;;;;;;;;;;4.94;97.02;99578.52;110441;1275;22348;-76
2023/11/17 02:59:59;;;;;;;;;;;;;;;4.94;97.14;99577.48;110448;1268;22370;-76
2023/11/17 03:02:30;;;;;;;;;;;;;;;4.93;97.29;99585.34;110470;1275;22387;-76
2023/11/17 03:05:04;;;;;;;;;;;;;;;4.94;97.37;99592.04;110451;1275;23294;-76
2023/11/17 03:07:35;;;;;;;;;;;;;;;4.95;97.48;99593.34;110477;1262;22396;-76
2023/11/17 03:10:06;;;;;;;;;;;;;;;4.96;97.47;99598.54;110449;1271;22404;-76
2023/11/17 03:12:37;;;;;;;;;;;;;;;4.94;97.61;99599.45;109853;1269;22509;-76
2023/11/17 03:15:09;;;;;;;;;;;;;;;4.97;97.62;99605.52;107758;1267;22569;-75
2023/11/17 03:17:39;;;;;;;;;;;;;;;5.00;97.63;99605.86;110461;1275;22870;-76
2023/11/17 03:20:14;;;;;;;;;;;;;;;5.00;97.77;99608.14;110514;1275;22390;-76
2023/11/17 03:22:44;;;;;;;;;;;;;;;5.01;97.88;99607.31;110431;1275;22430;-76
2023/11/17 03:25:17;;;;;;;;;;;;;;;5.00;97.90;99606.41;110476;1271;23343;-76
2023/11/17 03:27:48;;;;;;;;;;;;;;;5.00;98.12;99608.88;110471;1275;22381;-76
2023/11/17 03:30:22;;;;;;;;;;;;;;;5.00;98.31;99607.06;110417;1271;22444;-76
2023/11/17 03:32:57;;;;;;;;;;;;;;;4.99;98.56;99608.89;110410;1274;23184;-77
2023/11/17 03:35:28;;;;;;;;;;;;;;;4.99;98.54;99608.95;109754;1274;25465;-76
2023/11/17 03:38:00;;;;;;;;;;;;;;;5.00;98.80;99612.41;107874;1272;25214;-76
2023/11/17 03:40:29;;;;;;;;;;;;;;;5.01;98.88;99613.04;107824;1275;25570;-76
2023/11/17 03:42:59;;;;;;;;;;;;;;;5.00;99.04;99618.66;107736;1274;25518;-76
2023/11/17 03:45:28;;;;;;;;;;;;;;;4.99;99.41;99618.87;107764;1275;25885;-75
2023/11/17 03:48:00;;;;;;;;;;;;;;;4.98;99.52;99622.94;107712;1275;22623;-75
2023/11/17 03:50:29;;;;;;;;;;;;;;;4.97;99.79;99621.55;110442;1275;22357;-76
2023/11/17 03:53:00;;;;;;;;;;;;;;;4.96;99.87;99626.16;110451;1271;22581;-76
2023/11/17 03:55:31;;;;;;;;;;;;;;;4.96;99.99;99626.65;110468;1270;22506;-77
2023/11/17 03:58:02;;;;;;;;;;;;;;;4.96;100.00;99623.04;110492;1275;22366;-76
2023/11/17 04:00:33;;;;;;;;;;;;;;;4.95;100.00;99618.77;110518;1275;22345;-76
2023/11/17 04:03:04;;;;;;;;;;;;;;;4.95;100.00;99620.10;110446;1275;22480;-76
2023/11/17 04:05:35;;;;;;;;;;;;;;;4.95;100.00;99621.85;110423;1271;22347;-76
2023/11/17 04:08:05;;;;;;;;;;;;;;;4.96;100.00;99614.15;110493;1274;22355;-76
2023/11/17 04:10:35;;;;;;;;;;;;;;;4.97;100.00;99614.98;110479;1275;22364;-76
2023/11/17 04:13:05;;;;;;;;;;;;;;;4.97;100.00;99615.37;110435;1272;22433;-76
2023/11/17 04:15:36;;;;;;;;;;;;;;;4.98;100.00;99618.92;110489;1272;22370;-76
2023/11/17 04:18:06;;;;;;;;;;;;;;;4.98;100.00;99619.14;110468;1275;22355;-78
2023/11/17 04:20:36;;;;;;;;;;;;;;;4.98;100.00;99622.30;110444;1275;22412;-78
2023/11/17 04:23:06;;;;;;;;;;;;;;;4.97;100.00;99623.73;110479;1275;22392;-78
2023/11/17 04:25:36;;;;;;;;;;;;;;;4.99;100.00;99623.93;110465;1273;22382;-80
2023/11/17 04:28:06;;;;;;;;;;;;;;;4.98;100.00;99630.05;110464;1275;22412;-79
2023/11/17 04:30:36;;;;;;;;;;;;;;;4.98;100.00;99629.41;110481;1271;22365;-78
2023/11/17 04:33:09;;;;;;;;;;;;;;;4.98;100.00;99629.80;110469;1274;22432;-78
2023/11/17 04:35:39;;;;;;;;;;;;;;;4.99;100.00;99633.80;110485;1275;22322;-78
2023/11/17 04:38:09;;;;;;;;;;;;;;;5.01;100.00;99641.30;110444;1275;22374;-78
2023/11/17 04:40:39;;;;;;;;;;;;;;;5.03;100.00;99643.54;110475;1274;22473;-80
2023/11/17 04:43:10;;;;;;;;;;;;;;;5.04;100.00;99643.16;110443;1274;22429;-79
2023/11/17 04:45:43;;;;;;;;;;;;;;;5.06;100.00;99641.05;110484;1275;22327;-78
2023/11/17 04:48:13;;;;;;;;;;;;;;;5.06;100.00;99640.00;110459;1275;22347;-77
2023/11/17 04:50:43;;;;;;;;;;;;;;;5.08;100.00;99644.34;110505;1274;23098;-80
2023/11/17 04:53:13;;;;;;;;;;;;;;;5.09;100.00;99645.87;110445;1263;23101;-78
2023/11/17 04:55:50;;;;;;;;;;;;;;;5.10;100.00;99652.71;110472;1273;22399;-77
2023/11/17 04:58:20;;;;;;;;;;;;;;;5.11;100.00;99658.76;110456;1275;23261;-77
2023/11/17 05:00:50;;;;;;;;;;;;;;;5.12;100.00;99660.52;110491;1274;22443;-78
2023/11/17 05:03:20;;;;;;;;;;;;;;;5.13;100.00;99667.99;110485;1271;23180;-78
2023/11/17 05:05:50;;;;;;;;;;;;;;;5.14;100.00;99669.78;110480;1275;22367;-77
2023/11/17 05:08:20;;;;;;;;;;;;;;;5.15;100.00;99672.92;110491;1275;22409;-77
2023/11/17 05:10:51;;;;;;;;;;;;;;;5.16;100.00;99676.98;110480;1275;22382;-78
2023/11/17 05:13:20;;;;;;;;;;;;;;;5.17;100.00;99680.90;110448;1274;22933;-77
2023/11/17 05:15:50;;;;;;;;;;;;;;;5.17;100.00;99683.11;110482;1275;23169;-78
2023/11/17 05:18:20;;;;;;;;;;;;;;;5.18;100.00;99683.08;110457;1275;22411;-78
2023/11/17 05:20:50;;;;;;;;;;;;;;;5.19;100.00;99693.89;110432;1275;22433;-77
2023/11/17 05:23:20;;;;;;;;;;;;;;;5.19;100.00;99694.50;110413;1274;22386;-77
2023/11/17 05:25:51;;;;;;;;;;;;;;;5.19;100.00;99700.67;110439;1267;22436;-79
2023/11/17 05:28:20;;;;;;;;;;;;;;;5.19;100.00;99700.21;110460;1275;22501;-78
2023/11/17 05:30:55;;;;;;;;;;;;;;;5.18;100.00;99703.62;110406;1274;22393;-77
2023/11/17 05:33:26;;;;;;;;;;;;;;;5.18;100.00;99700.79;110466;1272;22424;-78
2023/11/17 05:35:55;;;;;;;;;;;;;;;5.18;100.00;99705.06;110484;1270;22399;-79
2023/11/17 05:38:26;;;;;;;;;;;;;;;5.18;100.00;99705.93;110461;1275;23109;-79
2023/11/17 05:40:57;;;;;;;;;;;;;;;5.19;100.00;99708.76;110439;1275;22489;-78
2023/11/17 05:43:27;;;;;;;;;;;;;;;5.18;100.00;99710.11;110473;1274;22394;-77
2023/11/17 05:46:00;;;;;;;;;;;;;;;5.18;100.00;99710.42;110500;1274;22404;-77
2023/11/17 05:48:29;;;;;;;;;;;;;;;5.17;100.00;99711.24;110454;1267;22325;-75
2023/11/17 05:51:03;;;;;;;;;;;;;;;5.18;100.00;99708.08;110448;1270;23155;-76
2023/11/17 05:53:33;;;;;;;;;;;;;;;5.18;100.00;99711.45;110420;1275;22415;-77
2023/11/17 05:56:04;;;;;;;;;;;;;;;5.18;100.00;99712.08;110449;1272;22830;-76
2023/11/17 05:58:35;;;;;;;;;;;;;;;5.17;100.00;99711.80;110476;1272;22347;-76
2023/11/17 06:01:06;;;;;;;;;;;;;;;5.17;100.00;99712.70;110463;1274;22341;-77
2023/11/17 06:03:37;;;;;;;;;;;;;;;5.16;100.00;99718.26;110466;1274;22453;-76
2023/11/17 06:06:06;;;;;;;;;;;;;;;5.15;100.00;99723.14;110440;1267;22506;-79
2023/11/17 06:08:37;;;;;;;;;;;;;;;5.13;100.00;99721.91;110426;1274;22383;-77
2023/11/17 06:11:08;;;;;;;;;;;;;;;5.12;100.00;99723.86;110442;1270;23139;-77
2023/11/17 06:13:40;;;;;;;;;;;;;;;5.11;100.00;99727.84;110446;1274;22375;-77
2023/11/17 06:16:15;;;;;;;;;;;;;;;5.09;100.00;99731.25;110474;1270;22385;-78
2023/11/17 06:18:45;;;;;;;;;;;;;;;5.07;100.00;99735.54;110431;1274;22458;-78
2023/11/17 06:21:15;;;;;;;;;;;;;;;5.04;100.00;99739.36;110451;1267;22359;-77
2023/11/17 06:23:45;;;;;;;;;;;;;;;5.02;100.00;99742.04;110436;1274;22416;-77
2023/11/17 06:26:15;;;;;;;;;;;;;;;5.02;100.00;99744.55;110455;1263;23066;-78
2023/11/17 06:28:46;;;;;;;;;;;;;;;4.98;100.00;99747.95;110459;1275;22437;-79
2023/11/17 06:31:17;;;;;;;;;;;;;;;4.90;100.00;99750.86;110429;1274;22423;-77
2023/11/17 06:33:46;;;;;;;;;;;;;;;4.86;100.00;99754.81;110448;1274;23137;-79
2023/11/17 06:36:16;;;;;;;;;;;;;;;4.82;100.00;99759.16;110461;1274;22425;-78
2023/11/17 06:38:46;;;;;;;;;;;;;;;4.76;100.00;99767.33;110462;1275;23191;-78
2023/11/17 06:41:16;;;;;;;;;;;;;;;4.73;100.00;99771.66;110465;1273;23210;-78
2023/11/17 06:43:46;;;;;;;;;;;;;;;4.69;100.00;99781.45;110461;1263;22412;-78
2023/11/17 06:46:17;;;;;;;;;;;;;;;4.61;100.00;99787.50;110461;1273;22397;-79
2023/11/17 06:48:47;;;;;;;;;;;;;;;4.55;100.00;99786.42;110451;1267;23152;-78
2023/11/17 06:51:19;;;;;;;;;;;;;;;4.50;100.00;99787.35;110456;1274;23070;-79
2023/11/17 06:53:52;;;;;;;;;;;;;;;4.47;100.00;99792.42;110402;1274;22432;-79
2023/11/17 06:56:21;;;;;;;;;;;;;;;4.42;100.00;99794.56;110451;1274;22421;-78
2023/11/17 06:58:51;;;;;;;;;;;;;;;4.35;100.00;99800.83;110478;1270;23225;-79
2023/11/17 07:01:21;;;;;;;;;;;;;;;4.31;100.00;99805.92;110498;1266;22419;-79
2023/11/17 07:03:52;;;;;;;;;;;;;;;4.30;100.00;99812.38;110434;1274;22430;-78
2023/11/17 07:06:27;;;;;;;;;;;;;;;4.25;100.00;99816.42;110463;1274;23204;-81
2023/11/17 07:08:57;;;;;;;;;;;;;;;4.18;100.00;99822.80;110458;1274;22843;-79
2023/11/17 07:11:27;;;;;;;;;;;;;;;4.13;100.00;99828.98;110464;1269;22490;-78
2023/11/17 07:14:01;;;;;;;;;;;;;;;4.08;100.00;99834.55;110460;1274;22418;-79
2023/11/17 07:16:31;;;;;;;;;;;;;;;4.06;100.00;99837.70;110454;1267;22337;-78
2023/11/17 07:19:01;;;;;;;;;;;;;;;4.04;100.00;99848.66;108278;1274;24304;-77
2023/11/17 07:21:30;;;;;;;;;;;;;;;4.03;100.00;99852.17;107536;1274;22527;-79
2023/11/17 07:24:00;;;;;;;;;;;;;;;4.03;100.00;99853.52;107482;1271;22508;-78
2023/11/17 07:26:30;;;;;;;;;;;;;;;4.04;100.00;99858.23;107527;1274;23175;-78
2023/11/17 07:28:59;;;;;;;;;;;;;;;4.06;100.00;99861.85;107595;1272;22518;-78
2023/11/17 07:31:37;;;;;;;;;;;;;;;4.08;100.00;99866.69;107686;1274;24184;-77
2023/11/17 07:34:07;;;;;;;;;;;;;;;4.09;100.00;99875.52;107737;1274;22504;-77
2023/11/17 07:36:37;;;;;;;;;;;;;;;4.06;100.00;99879.29;107575;1274;23742;-77
2023/11/17 07:39:09;;;;;;;;;;;;;;;4.01;100.00;99877.16;110442;1274;23258;-78
2023/11/17 07:41:40;;;;;;;;;;;;;;;3.95;100.00;99887.31;110470;1251;23032;-78
2023/11/17 07:44:11;;;;;;;;;;;;;;;3.89;100.00;99889.31;110453;1267;22817;-78
2023/11/17 07:46:42;;;;;;;;;;;;;;;3.85;100.00;99889.48;110514;1274;22350;-79
2023/11/17 07:49:12;;;;;;;;;;;;;;;3.83;100.00;99898.50;110471;1274;22320;-78
2023/11/17 07:51:42;;;;;;;;;;;;;;;3.81;100.00;99897.85;110461;1256;22362;-78
2023/11/17 07:54:12;;;;;;;;;;;;;;;3.77;100.00;99893.48;110472;1274;22372;-78
2023/11/17 07:56:41;;;;;;;;;;;;;;;3.75;100.00;99898.58;110453;1272;23206;-79
2023/11/17 07:59:12;;;;;;;;;;;;;;;3.72;100.00;99898.05;110488;1271;22402;-78
2023/11/17 08:01:41;;;;;;;;;;;;;;;3.69;100.00;99903.83;110501;1260;23267;-79
2023/11/17 08:04:11;;;;;;;;;;;;;;;3.65;100.00;99915.44;110454;1274;22401;-78
2023/11/17 08:06:40;;;;;;;;;;;;;;;3.63;100.00;99919.79;110453;1274;22378;-78
2023/11/17 08:09:10;;;;;;;;;;;;;;;3.61;100.00;99929.06;110480;1274;22879;-79
2023/11/17 08:11:40;;;;;;;;;;;;;;;3.60;100.00;99933.84;110479;1274;22385;-78
2023/11/17 08:14:10;;;;;;;;;;;;;;;3.61;100.00;99933.93;110460;1274;22396;-78
2023/11/17 08:16:41;;;;;;;;;;;;;;;3.65;100.00;99934.14;110476;1267;22340;-80
2023/11/17 08:19:11;;;;;;;;;;;;;;;3.66;100.00;99941.36;110460;1272;23270;-79
2023/11/17 08:21:41;;;;;;;;;;;;;;;3.67;100.00;99941.83;110439;1274;22343;-78
2023/11/17 08:24:11;;;;;;;;;;;;;;;3.67;100.00;99950.40;110456;1272;22439;-78
2023/11/17 08:26:42;;;;;;;;;;;;;;;3.63;100.00;99950.21;110506;1274;22343;-80
2023/11/17 08:29:13;;;;;;;;;;;;;;;3.60;100.00;99951.55;110494;1274;22349;-78
2023/11/17 08:31:44;;;;;;;;;;;;;;;3.59;100.00;99953.10;110490;1274;22334;-78
2023/11/17 08:34:14;;;;;;;;;;;;;;;3.60;100.00;99954.40;110473;1251;22947;-78
2023/11/17 08:36:44;;;;;;;;;;;;;;;3.59;100.00;99953.02;110471;1272;22495;-78
2023/11/17 08:39:25;;;;;;;;;;;;;;;3.57;99.95;99958.11;110442;1275;23134;-78
2023/11/17 08:41:55;;;;;;;;;;;;;;;3.55;99.70;99963.54;110458;1274;22443;-78
2023/11/17 08:44:25;;;;;;;;;;;;;;;3.57;100.00;99968.44;110445;1271;22382;-78
2023/11/17 08:46:56;;;;;;;;;;;;;;;3.61;100.00;99978.14;110469;1268;22920;-80
2023/11/17 08:49:26;;;;;;;;;;;;;;;3.63;99.57;99982.88;110459;1274;22329;-79
2023/11/17 08:51:56;;;;;;;;;;;;;;;3.62;99.08;99985.35;110499;1267;22435;-78
2023/11/17 08:54:26;;;;;;;;;;;;;;;3.63;99.05;99993.35;110467;1274;22429;-78
2023/11/17 08:56:57;;;;;;;;;;;;;;;3.64;98.87;99998.79;110229;1276;23213;-78
2023/11/17 08:59:29;;;;;;;;;;;;;;;3.64;98.52;99996.95;110324;1276;22317;-77
2023/11/17 09:01:59;;;;;;;;;;;;;;;3.66;98.03;100003.05;110335;1276;22422;-79
2023/11/17 09:04:29;;;;;;;;;;;;;;;3.67;97.92;100010.59;110360;1276;23185;-78
2023/11/17 09:06:58;;;;;;;;;;;;;;;3.69;98.00;100012.27;110333;1269;22423;-78
2023/11/17 09:09:28;;;;;;;;;;;;;;;3.70;97.00;100015.71;110377;1276;22872;-78
2023/11/17 09:11:58;;;;;;;;;;;;;;;3.68;96.54;100019.89;110274;1276;22441;-78
2023/11/17 09:14:28;;;;;;;;;;;;;;;3.63;95.73;100028.45;110311;1276;22399;-79
2023/11/17 09:17:00;;;;;;;;;;;;;;;3.59;95.81;100033.86;110355;1270;22404;-78
2023/11/17 09:19:30;;;;;;;;;;;;;;;3.55;95.98;100032.87;110358;1276;22329;-78
2023/11/17 09:22:00;;;;;;;;;;;;;;;3.54;96.30;100035.43;110357;1276;22447;-79
2023/11/17 09:24:30;;;;;;;;;;;;;;;3.50;96.02;100039.15;110340;1273;22336;-78
2023/11/17 09:26:59;;;;;;;;;;;;;;;3.47;96.18;100040.20;109094;1273;22554;-79
2023/11/17 09:29:31;;;;;;;;;;;;;;;3.44;95.66;100047.67;107495;1276;25306;-80
2023/11/17 09:32:01;;;;;;;;;;;;;;;3.37;94.86;100044.31;107636;1276;22899;-79
2023/11/17 09:34:30;;;;;;;;;;;;;;;3.31;94.99;100048.81;107728;1276;24749;-78
2023/11/17 09:37:02;;;;;;;;;;;;;;;3.23;92.72;100053.66;107768;1276;22966;-78
2023/11/17 09:39:32;;;;;;;;;;;;;;;3.18;94.38;100050.09;107789;1272;24286;-79
2023/11/17 09:42:03;;;;;;;;;;;;;;;3.19;94.70;100048.02;107813;1269;23313;-78
2023/11/17 09:44:34;;;;;;;;;;;;;;;3.19;94.66;100054.70;110336;1276;23115;-77
2023/11/17 09:47:12;;;;;;;;;;;;;;;3.17;94.19;100055.41;110367;1276;22358;-77
2023/11/17 09:49:43;;;;;;;;;;;;;;;3.15;94.58;100060.50;110340;1273;23288;-78
2023/11/17 09:52:14;;;;;;;;;;;;;;;3.15;94.72;100063.11;110324;1276;23296;-77
2023/11/17 09:54:45;;;;;;;;;;;;;;;3.14;94.71;100065.10;110326;1271;23335;-77
2023/11/17 09:57:18;;;;;;;;;;;;;;;3.15;94.44;100059.86;110480;1274;22351;-78
2023/11/17 09:59:49;;;;;;;;;;;;;;;3.16;94.54;100064.50;110457;1274;22350;-77
2023/11/17 10:02:20;;;;;;;;;;;;;;;3.16;94.25;100056.60;110491;1272;22397;-78
2023/11/17 10:04:51;;;;;;;;;;;;;;;3.17;94.14;100046.56;110462;1274;22345;-77
2023/11/17 10:07:24;;;;;;;;;;;;;;;3.21;93.81;100042.44;110498;1274;22346;-77
2023/11/17 10:09:56;;;;;;;;;;;;;;;3.26;93.60;100043.48;110460;1274;22911;-78
2023/11/17 10:12:27;;;;;;;;;;;;;;;3.30;92.51;100043.16;110454;1274;23293;-78
2023/11/17 10:14:57;;;;;;;;;;;;;;;3.35;93.14;100037.20;110467;1274;22468;-78
2023/11/17 10:17:28;;;;;;;;;;;;;;;3.40;92.85;100038.40;110476;1274;22403;-80
2023/11/17 10:19:58;;;;;;;;;;;;;;;3.40;92.50;100037.36;110483;1271;22361;-78
2023/11/17 10:22:29;;;;;;;;;;;;;;;3.45;93.49;100035.84;110452;1274;22385;-79
2023/11/17 10:24:59;;;;;;;;;;;;;;;3.50;93.76;100038.04;110446;1263;22356;-77
2023/11/17 10:27:29;;;;;;;;;;;;;;;3.54;93.54;100037.45;110469;1274;22377;-79
2023/11/17 10:29:59;;;;;;;;;;;;;;;3.58;93.82;100035.21;110473;1274;22362;-78
2023/11/17 10:32:29;;;;;;;;;;;;;;;3.63;93.71;100032.02;110514;1274;22410;-78
2023/11/17 10:35:16;;;;;;;;;;;;;;;3.67;93.41;100035.04;110489;1274;22331;-78
2023/11/17 10:37:49;;;;;;;;;;;;;;;3.72;93.63;100035.63;110509;1274;22347;-78
2023/11/17 10:40:27;;;;;;;;;;;;;;;3.75;93.75;100038.59;110450;1274;22332;-77
2023/11/17 10:43:09;;;;;;;;;;;;;;;3.81;93.22;100044.67;109765;1255;22532;-79
2023/11/17 10:45:41;;;;;;;;;;;;;;;3.81;92.46;100040.88;107639;1274;23357;-81
2023/11/17 10:48:13;;;;;;;;;;;;;;;3.81;92.36;100044.13;110472;1274;22520;-79
2023/11/17 10:50:43;;;;;;;;;;;;;;;3.82;93.08;100042.98;110471;1267;22353;-79
2023/11/17 10:53:19;;;;;;;;;;;;;;;3.85;93.33;100037.84;110470;1274;22404;-78
2023/11/17 10:55:53;;;;;;;;;;;;;;;3.88;93.01;100036.02;110493;1274;23319;-80
2023/11/17 10:58:22;;;;;;;;;;;;;;;3.91;93.13;100038.85;110396;1269;22845;-78
2023/11/17 11:00:56;;;;;;;;;;;;;;;3.93;92.74;100039.65;110493;1274;22781;-78
2023/11/17 11:03:29;;;;;;;;;;;;;;;3.92;92.20;100046.96;110475;1270;22388;-79
2023/11/17 11:05:59;;;;;;;;;;;;;;;3.88;92.21;100049.73;108316;1274;22501;-79
2023/11/17 11:08:30;;;;;;;;;;;;;;;3.85;92.44;100046.98;107727;1274;22520;-79
2023/11/17 11:11:00;;;;;;;;;;;;;;;3.83;92.50;100047.30;107789;1269;24273;-78
2023/11/17 11:13:30;;;;;;;;;;;;;;;3.82;92.71;100051.59;107857;1268;23186;-79
2023/11/17 11:16:05;;;;;;;;;;;;;;;3.80;92.84;100049.42;107792;1267;22520;-78
2023/11/17 11:18:36;;;;;;;;;;;;;;;3.78;92.49;100051.21;110438;1275;22383;-78
2023/11/17 11:21:10;;;;;;;;;;;;;;;3.76;92.52;100044.64;110399;1274;22348;-78
2023/11/17 11:23:41;;;;;;;;;;;;;;;3.77;93.04;100047.94;110464;1274;22411;-81
2023/11/17 11:26:13;;;;;;;;;;;;;;;3.78;93.03;100052.47;110503;1274;23088;-79
2023/11/17 11:28:44;;;;;;;;;;;;;;;3.79;92.82;100056.81;110475;1274;22394;-79
2023/11/17 11:31:19;;;;;;;;;;;;;;;3.78;92.60;100060.30;110512;1274;22410;-79
2023/11/17 11:33:49;;;;;;;;;;;;;;;3.75;92.47;100067.55;110486;1274;22481;-78
2023/11/17 11:36:20;;;;;;;;;;;;;;;3.73;92.43;100067.14;110477;1267;22443;-78
2023/11/17 11:38:50;;;;;;;;;;;;;;;3.70;92.45;100072.35;110403;1274;22354;-78
2023/11/17 11:41:23;;;;;;;;;;;;;;;3.68;92.42;100070.27;110459;1274;22438;-79
2023/11/17 11:43:54;;;;;;;;;;;;;;;3.66;92.42;100067.24;110476;1274;22494;-77
2023/11/17 11:46:27;;;;;;;;;;;;;;;3.65;92.21;100071.30;110494;1269;22362;-78
2023/11/17 11:48:58;;;;;;;;;;;;;;;3.61;91.90;100074.02;110468;1275;23141;-78
2023/11/17 11:51:29;;;;;;;;;;;;;;;3.59;92.19;100070.11;110487;1274;22332;-78
2023/11/17 11:54:02;;;;;;;;;;;;;;;3.59;92.03;100070.77;110462;1274;23209;-79
2023/11/17 11:56:39;;;;;;;;;;;;;;;3.60;92.42;100064.20;110471;1272;23343;-78
2023/11/17 11:59:11;;;;;;;;;;;;;;;3.61;92.01;100064.63;110528;1259;22983;-77
2023/11/17 12:01:42;;;;;;;;;;;;;;;3.61;92.03;100059.81;110504;1267;22443;-80
2023/11/17 12:04:13;;;;;;;;;;;;;;;3.63;92.36;100061.95;110482;1267;23323;-78
2023/11/17 12:06:44;;;;;;;;;;;;;;;3.66;92.39;100069.06;110482;1274;23178;-78
2023/11/17 12:09:16;;;;;;;;;;;;;;;3.65;92.07;100076.48;106323;1274;5435575;-79
2023/11/17 12:11:46;;;;;;;;;;;;;;;3.62;92.02;100073.75;110492;1275;22410;-78
2023/11/17 12:14:18;;;;;;;;;;;;;;;3.61;92.09;100079.24;110458;1268;22499;-78
2023/11/17 12:16:54;;;;;;;;;;;;;;;3.60;92.23;100071.63;110484;1274;22536;-79
2023/11/17 12:19:25;;;;;;;;;;;;;;;3.61;92.26;100078.02;110494;1274;22355;-78
2023/11/17 12:21:55;;;;;;;;;;;;;;;3.61;91.50;100077.77;110456;1269;22491;-78
2023/11/17 12:24:25;;;;;;;;;;;;;;;3.61;91.47;100084.10;110490;1274;22331;-78
2023/11/17 12:26:56;;;;;;;;;;;;;;;3.62;91.45;100093.40;110442;1275;22415;-79
2023/11/17 12:29:31;;;;;;;;;;;;;;;3.61;91.53;100088.83;110475;1274;23082;-78
2023/11/17 12:32:03;;;;;;;;;;;;;;;3.63;91.31;100089.98;110475;1262;22486;-78
2023/11/17 12:34:33;;;;;;;;;;;;;;;3.63;91.00;100086.27;110495;1274;22339;-79
2023/11/17 12:37:03;;;;;;;;;;;;;;;3.64;91.52;100083.39;110459;1268;23171;-80
2023/11/17 12:39:40;;;;;;;;;;;;;;;3.68;91.53;100087.07;110490;1271;22377;-77
2023/11/17 12:42:16;;;;;;;;;;;;;;;3.69;91.25;100084.99;110487;1271;23059;-79
2023/11/17 12:44:46;;;;;;;;;;;;;;;3.68;90.95;100090.87;110464;1275;22369;-78
2023/11/17 12:47:16;;;;;;;;;;;;;;;3.66;90.90;100093.49;110475;1269;23211;-77
2023/11/17 12:49:53;;;;;;;;;;;;;;;3.66;91.24;100089.88;110492;1268;23124;-78
2023/11/17 12:52:23;;;;;;;;;;;;;;;3.68;91.34;100093.33;110462;1267;22599;-78
2023/11/17 12:55:06;;;;;;;;;;;;;;;3.68;90.76;100085.90;110433;1274;22417;-78
2023/11/17 12:57:37;;;;;;;;;;;;;;;3.68;90.13;100095.13;110466;1274;22368;-78
2023/11/17 13:00:16;;;;;;;;;;;;;;;3.68;90.92;100092.05;110485;1274;23169;-79
2023/11/17 13:02:46;;;;;;;;;;;;;;;3.69;90.54;100096.52;110437;1274;22540;-78